createdAt,value
2023-09-18T00:00:33.834Z,2.70
2023-09-18T00:03:04.039Z,2.40
2023-09-18T00:05:31.044Z,2.33
2023-09-18T00:07:57.782Z,2.50
2023-09-18T00:10:24.381Z,2.17
2023-09-18T00:12:50.900Z,2.28
2023-09-18T00:15:17.563Z,2.55
2023-09-18T00:17:44.182Z,2.72
2023-09-18T00:20:11.085Z,2.90
2023-09-18T00:22:37.641Z,2.92
2023-09-18T00:25:04.647Z,2.30
2023-09-18T00:27:31.289Z,3.15
2023-09-18T00:29:57.816Z,2.78
2023-09-18T00:32:24.424Z,2.80
2023-09-18T00:34:51.057Z,2.72
2023-09-18T00:37:17.913Z,2.50
2023-09-18T00:39:45.400Z,3.00
2023-09-18T00:42:16.862Z,2.85
2023-09-18T00:44:43.547Z,2.88
2023-09-18T00:47:10.454Z,2.58
2023-09-18T00:49:40.485Z,2.58
2023-09-18T00:52:09.557Z,3.00
2023-09-18T00:54:38.122Z,2.90
2023-09-18T00:57:05.663Z,3.03
2023-09-18T00:59:32.715Z,2.75
2023-09-18T01:02:00.765Z,2.60
2023-09-18T01:04:29.845Z,2.55
2023-09-18T01:06:57.868Z,2.55
2023-09-18T01:09:25.068Z,3.17
2023-09-18T01:12:24.304Z,3.10
2023-09-18T01:14:59.977Z,2.72
2023-09-18T01:17:27.458Z,2.40
2023-09-18T01:19:54.047Z,3.05
2023-09-18T01:22:20.977Z,3.45
2023-09-18T01:24:49.081Z,2.70
2023-09-18T01:27:18.168Z,3.30
2023-09-18T01:29:48.907Z,2.70
2023-09-18T01:32:16.069Z,2.80
2023-09-18T01:34:51.109Z,2.53
2023-09-18T01:37:22.096Z,2.60
2023-09-18T01:39:52.147Z,2.72
2023-09-18T01:42:18.972Z,3.20
2023-09-18T01:44:46.691Z,3.22
2023-09-18T01:47:21.896Z,2.83
2023-09-18T01:49:48.714Z,2.50
2023-09-18T01:52:15.275Z,3.00
2023-09-18T01:54:42.094Z,2.58
2023-09-18T01:57:09.076Z,3.30
2023-09-18T01:59:36.444Z,2.22
2023-09-18T02:02:07.753Z,3.42
2023-09-18T02:05:07.680Z,3.10
2023-09-18T02:07:21.735Z,3.00
2023-09-18T02:09:48.449Z,3.00
2023-09-18T02:12:18.618Z,2.83
2023-09-18T02:14:46.198Z,3.10
2023-09-18T02:17:13.046Z,2.58
2023-09-18T02:19:39.752Z,2.97
2023-09-18T02:22:06.408Z,3.75
2023-09-18T02:24:32.999Z,2.97
2023-09-18T02:26:59.581Z,2.75
2023-09-18T02:29:26.324Z,2.90
2023-09-18T02:31:53.014Z,2.92
2023-09-18T02:34:20.483Z,2.92
2023-09-18T02:36:47.342Z,2.70
2023-09-18T02:39:14.095Z,2.83
2023-09-18T02:41:40.693Z,2.83
2023-09-18T02:44:07.356Z,3.00
2023-09-18T02:46:34.256Z,3.33
2023-09-18T02:49:01.106Z,2.50
2023-09-18T02:51:27.767Z,2.80
2023-09-18T02:53:54.347Z,2.63
2023-09-18T02:56:20.931Z,2.95
2023-09-18T02:58:47.452Z,3.15
2023-09-18T03:01:14.021Z,2.90
2023-09-18T03:03:42.938Z,2.90
2023-09-18T03:06:09.926Z,2.67
2023-09-18T03:08:36.632Z,2.95
2023-09-18T03:11:04.454Z,3.00
2023-09-18T03:13:32.161Z,3.03
2023-09-18T03:15:58.783Z,2.90
2023-09-18T03:18:25.491Z,2.95
2023-09-18T03:20:52.033Z,3.10
2023-09-18T03:23:19.010Z,2.70
2023-09-18T03:25:49.229Z,2.85
2023-09-18T03:28:18.472Z,2.95
2023-09-18T03:30:45.152Z,2.88
2023-09-18T03:33:11.770Z,2.50
2023-09-18T03:35:50.178Z,2.67
2023-09-18T03:38:16.982Z,2.70
2023-09-18T03:40:44.492Z,2.50
2023-09-18T03:43:13.233Z,2.97
2023-09-18T03:45:42.784Z,3.03
2023-09-18T03:48:10.736Z,2.80
2023-09-18T03:50:37.854Z,2.58
2023-09-18T03:53:04.661Z,2.67
2023-09-18T03:55:31.480Z,2.63
2023-09-18T03:57:58.460Z,2.90
2023-09-18T04:00:25.386Z,2.90
2023-09-18T04:02:52.156Z,2.60
2023-09-18T04:05:19.897Z,2.50
2023-09-18T04:07:47.766Z,2.63
2023-09-18T04:10:24.597Z,3.53
2023-09-18T04:12:52.507Z,2.95
2023-09-18T04:15:20.137Z,2.80
2023-09-18T04:17:47.085Z,2.75
2023-09-18T04:20:14.455Z,2.47
2023-09-18T04:22:51.443Z,2.50
2023-09-18T04:25:20.327Z,2.60
2023-09-18T04:27:47.340Z,3.20
2023-09-18T04:30:15.123Z,2.63
2023-09-18T04:32:42.592Z,2.70
2023-09-18T04:35:10.229Z,2.83
2023-09-18T04:37:39.310Z,2.92
2023-09-18T04:40:11.418Z,2.80
2023-09-18T04:42:39.767Z,2.83
2023-09-18T04:45:06.993Z,2.75
2023-09-18T04:47:33.818Z,2.90
2023-09-18T04:50:00.462Z,3.10
2023-09-18T04:52:27.059Z,3.08
2023-09-18T04:54:55.413Z,2.72
2023-09-18T04:57:23.306Z,2.97
2023-09-18T05:00:01.587Z,2.72
2023-09-18T05:02:37.425Z,2.60
2023-09-18T05:05:05.002Z,2.83
2023-09-18T05:07:32.628Z,2.70
2023-09-18T05:09:59.524Z,2.67
2023-09-18T05:12:26.132Z,2.83
2023-09-18T05:14:52.854Z,2.58
2023-09-18T05:17:19.484Z,2.70
2023-09-18T05:19:46.236Z,2.92
2023-09-18T05:22:13.208Z,2.47
2023-09-18T05:24:40.524Z,2.63
2023-09-18T05:27:08.432Z,2.95
2023-09-18T05:29:38.989Z,3.10
2023-09-18T05:32:05.766Z,2.75
2023-09-18T05:34:33.236Z,2.67
2023-09-18T05:37:00.032Z,3.03
2023-09-18T05:39:26.631Z,2.53
2023-09-18T05:41:53.280Z,2.58
2023-09-18T05:44:19.898Z,2.40
2023-09-18T05:46:47.239Z,2.78
2023-09-18T05:49:13.853Z,2.63
2023-09-18T05:51:40.476Z,2.22
2023-09-18T05:54:07.063Z,2.50
2023-09-18T05:56:34.910Z,2.17
2023-09-18T05:59:01.494Z,2.03
2023-09-18T06:01:28.910Z,2.17
2023-09-18T06:03:55.651Z,2.70
2023-09-18T06:06:22.624Z,2.38
2023-09-18T06:08:49.232Z,2.28
2023-09-18T06:11:15.928Z,2.40
2023-09-18T06:13:42.486Z,2.72
2023-09-18T06:16:09.601Z,2.05
2023-09-18T06:18:39.082Z,2.60
2023-09-18T06:21:06.406Z,2.30
2023-09-18T06:23:33.322Z,2.22
2023-09-18T06:26:00.659Z,2.05
2023-09-18T06:28:27.233Z,2.10
2023-09-18T06:30:55.456Z,1.88
2023-09-18T06:33:22.413Z,2.30
2023-09-18T06:35:49.842Z,1.92
2023-09-18T06:38:16.673Z,2.95
2023-09-18T06:40:43.431Z,2.50
2023-09-18T06:43:10.134Z,2.17
2023-09-18T06:45:39.030Z,1.80
2023-09-18T06:48:06.343Z,2.00
2023-09-18T06:50:33.108Z,2.00
2023-09-18T06:52:59.678Z,2.00
2023-09-18T06:55:26.308Z,1.73
2023-09-18T06:57:53.328Z,1.80
2023-09-18T07:00:22.115Z,1.92
2023-09-18T07:02:50.809Z,1.80
2023-09-18T07:05:17.960Z,1.92
2023-09-18T07:07:44.794Z,1.92
2023-09-18T07:10:11.509Z,1.77
2023-09-18T07:12:38.623Z,2.00
2023-09-18T07:15:08.403Z,1.63
2023-09-18T07:17:36.417Z,1.60
2023-09-18T07:20:11.038Z,1.40
2023-09-18T07:22:37.743Z,1.48
2023-09-18T07:25:05.488Z,1.70
2023-09-18T07:27:32.000Z,1.55
2023-09-18T07:29:58.571Z,1.70
2023-09-18T07:32:37.518Z,1.48
2023-09-18T07:35:08.653Z,1.40
2023-09-18T07:37:36.378Z,1.52
2023-09-18T07:40:04.754Z,1.38
2023-09-18T07:42:31.391Z,1.58
2023-09-18T07:44:59.410Z,1.33
2023-09-18T07:47:26.864Z,1.48
2023-09-18T07:49:55.548Z,1.20
2023-09-18T07:52:22.134Z,1.25
2023-09-18T07:54:48.680Z,1.15
2023-09-18T07:57:15.196Z,1.55
2023-09-18T07:59:43.258Z,1.33
2023-09-18T08:02:10.864Z,1.00
2023-09-18T08:04:37.756Z,1.20
2023-09-18T08:07:07.868Z,1.27
2023-09-18T08:09:38.213Z,1.10
2023-09-18T08:12:05.084Z,0.93
2023-09-18T08:14:32.282Z,1.25
2023-09-18T08:17:01.030Z,0.90
2023-09-18T08:19:28.191Z,1.05
2023-09-18T08:21:55.740Z,1.05
2023-09-18T08:24:22.304Z,0.93
2023-09-18T08:26:48.932Z,1.13
2023-09-18T08:29:16.344Z,1.20
2023-09-18T08:31:43.562Z,1.10
2023-09-18T08:34:10.202Z,1.00
2023-09-18T08:36:36.927Z,1.00
2023-09-18T08:39:07.004Z,0.90
2023-09-18T08:41:34.610Z,1.10
2023-09-18T08:44:04.564Z,0.85
2023-09-18T08:46:34.078Z,1.00
2023-09-18T08:49:01.416Z,0.82
2023-09-18T08:51:29.501Z,0.95
2023-09-18T08:53:59.919Z,1.10
2023-09-18T08:56:28.941Z,0.88
2023-09-18T08:58:55.908Z,0.95
2023-09-18T09:01:23.321Z,1.10
2023-09-18T09:03:49.968Z,1.08
2023-09-18T09:06:16.642Z,0.80
2023-09-18T09:08:43.183Z,1.02
2023-09-18T09:11:09.801Z,0.90
2023-09-18T09:13:41.800Z,0.70
2023-09-18T09:16:14.716Z,1.00
2023-09-18T09:18:52.248Z,0.90
2023-09-18T09:21:19.966Z,0.85
2023-09-18T09:23:55.239Z,1.10
2023-09-18T09:26:24.139Z,1.00
2023-09-18T09:28:51.755Z,0.80
2023-09-18T09:31:29.709Z,1.00
2023-09-18T09:34:00.076Z,0.93
2023-09-18T09:36:26.943Z,0.90
2023-09-18T09:38:59.230Z,1.13
2023-09-18T09:41:29.103Z,0.85
2023-09-18T09:43:57.375Z,0.85
2023-09-18T09:46:26.631Z,0.90
2023-09-18T09:49:04.944Z,0.95
2023-09-18T09:51:35.513Z,1.20
2023-09-18T09:54:02.402Z,0.75
2023-09-18T09:56:49.756Z,0.93
2023-09-18T09:59:16.927Z,1.00
2023-09-18T10:01:47.523Z,0.70
2023-09-18T10:04:18.970Z,1.00
2023-09-18T10:06:52.300Z,1.20
2023-09-18T10:09:21.747Z,1.00
2023-09-18T10:11:53.536Z,1.27
2023-09-18T10:14:21.568Z,0.90
2023-09-18T10:16:56.081Z,0.90
2023-09-18T10:19:29.568Z,1.10
2023-09-18T10:22:37.294Z,1.00
2023-09-18T10:25:19.634Z,0.90
2023-09-18T10:27:50.397Z,0.90
2023-09-18T10:30:20.458Z,0.90
2023-09-18T10:32:47.620Z,1.00
2023-09-18T10:35:14.341Z,1.10
2023-09-18T10:37:44.698Z,0.88
2023-09-18T10:40:11.535Z,0.95
2023-09-18T10:42:42.662Z,0.88
2023-09-18T10:45:11.584Z,1.15
2023-09-18T10:47:44.279Z,1.13
2023-09-18T10:50:11.109Z,1.05
2023-09-18T10:52:44.423Z,1.13
2023-09-18T10:55:15.070Z,1.00
2023-09-18T10:57:56.152Z,1.20
2023-09-18T11:00:26.449Z,1.08
2023-09-18T11:02:54.094Z,1.05
2023-09-18T11:06:02.687Z,1.02
2023-09-18T11:08:30.811Z,1.40
2023-09-18T11:11:05.309Z,1.08
2023-09-18T11:13:35.713Z,1.25
2023-09-18T11:16:23.199Z,1.10
2023-09-18T11:18:54.136Z,1.30
2023-09-18T11:21:32.923Z,1.30
2023-09-18T11:24:02.062Z,1.30
2023-09-18T11:26:36.588Z,1.10
2023-09-18T11:29:06.750Z,1.15
2023-09-18T11:31:51.993Z,1.15
2023-09-18T11:34:32.579Z,1.02
2023-09-18T11:36:59.827Z,1.00
2023-09-18T11:39:40.618Z,1.25
2023-09-18T11:42:17.104Z,1.10
2023-09-18T11:44:47.725Z,1.23
2023-09-18T11:47:23.502Z,1.00
2023-09-18T11:49:56.191Z,1.08
2023-09-18T11:52:23.979Z,1.30
2023-09-18T11:54:52.125Z,1.15
2023-09-18T11:59:48.071Z,0.93
2023-09-18T12:02:29.088Z,0.90
2023-09-18T12:04:56.410Z,1.17
2023-09-18T12:07:23.952Z,1.20
2023-09-18T12:09:50.616Z,1.30
2023-09-18T12:12:19.061Z,1.02
2023-09-18T12:14:46.252Z,1.30
2023-09-18T12:17:16.987Z,1.10
2023-09-18T12:19:56.537Z,1.50
2023-09-18T12:22:27.670Z,1.20
2023-09-18T12:24:54.635Z,1.10
2023-09-18T12:27:21.422Z,1.30
2023-09-18T12:29:48.664Z,1.30
2023-09-18T12:32:15.614Z,1.38
2023-09-18T12:34:42.987Z,1.20
2023-09-18T12:37:12.896Z,1.20
2023-09-18T12:39:39.416Z,1.30
2023-09-18T12:42:06.723Z,1.17
2023-09-18T12:44:33.511Z,1.40
2023-09-18T12:47:00.634Z,1.42
2023-09-18T12:49:33.100Z,1.00
2023-09-18T12:52:01.451Z,0.98
2023-09-18T12:54:46.743Z,1.20
2023-09-18T12:57:17.215Z,1.20
2023-09-18T12:59:43.885Z,1.20
2023-09-18T13:02:14.275Z,1.00
2023-09-18T13:04:42.438Z,1.13
2023-09-18T13:07:14.480Z,1.08
2023-09-18T13:09:42.531Z,1.10
2023-09-18T13:12:10.113Z,1.17
2023-09-18T13:15:12.246Z,1.20
2023-09-18T13:17:59.492Z,1.30
2023-09-18T13:20:30.837Z,1.17
2023-09-18T13:22:59.893Z,1.15
2023-09-18T13:25:30.442Z,1.10
2023-09-18T13:27:57.261Z,1.30
2023-09-18T13:30:24.165Z,1.20
2023-09-18T13:32:51.553Z,1.10
2023-09-18T13:35:19.644Z,1.05
2023-09-18T13:37:47.082Z,1.20
2023-09-18T13:40:15.186Z,1.20
2023-09-18T13:42:41.736Z,1.20
2023-09-18T13:45:09.783Z,1.30
2023-09-18T13:47:37.103Z,1.20
2023-09-18T13:50:05.782Z,1.20
2023-09-18T13:52:35.962Z,1.10
2023-09-18T13:55:06.757Z,0.93
2023-09-18T13:57:34.283Z,1.10
2023-09-18T14:00:02.753Z,1.05
2023-09-18T14:02:29.653Z,1.40
2023-09-18T14:04:56.516Z,1.20
2023-09-18T14:07:23.445Z,1.17
2023-09-18T14:09:50.359Z,1.10
2023-09-18T14:12:17.179Z,1.02
2023-09-18T14:14:45.032Z,1.17
2023-09-18T14:17:12.544Z,1.00
2023-09-18T14:19:39.673Z,1.27
2023-09-18T14:22:07.123Z,1.08
2023-09-18T14:24:35.322Z,1.10
2023-09-18T14:27:03.666Z,1.00
2023-09-18T14:29:34.565Z,0.90
2023-09-18T14:32:01.961Z,1.02
2023-09-18T14:34:28.927Z,1.20
2023-09-18T14:36:55.480Z,1.13
2023-09-18T14:39:22.331Z,1.00
2023-09-18T14:41:52.067Z,1.05
2023-09-18T14:44:18.727Z,1.00
2023-09-18T14:46:45.385Z,1.00
2023-09-18T14:49:12.074Z,0.98
2023-09-18T14:51:38.814Z,1.10
2023-09-18T14:54:05.910Z,1.10
2023-09-18T14:56:32.677Z,0.90
2023-09-18T14:58:59.337Z,1.13
2023-09-18T15:01:26.042Z,1.08
2023-09-18T15:03:52.897Z,1.13
2023-09-18T15:06:19.760Z,1.23
2023-09-18T15:08:47.821Z,1.20
2023-09-18T15:11:17.391Z,1.30
2023-09-18T15:13:44.762Z,1.20
2023-09-18T15:16:11.318Z,1.23
2023-09-18T15:18:39.272Z,1.20
2023-09-18T15:21:06.358Z,1.38
2023-09-18T15:23:32.989Z,1.05
2023-09-18T15:25:59.590Z,1.15
2023-09-18T15:28:28.596Z,1.30
2023-09-18T15:30:55.669Z,1.20
2023-09-18T15:33:26.753Z,1.20
2023-09-18T15:35:54.213Z,1.10
2023-09-18T15:38:22.174Z,1.20
2023-09-18T15:40:50.177Z,1.20
2023-09-18T15:43:18.866Z,1.27
2023-09-18T15:45:45.754Z,1.20
2023-09-18T15:48:12.459Z,1.42
2023-09-18T15:50:39.511Z,1.40
2023-09-18T15:53:06.322Z,1.10
2023-09-18T15:55:33.021Z,1.20
2023-09-18T15:57:59.644Z,1.17
2023-09-18T16:00:26.287Z,1.30
2023-09-18T16:02:53.212Z,1.20
2023-09-18T16:05:25.818Z,1.23
2023-09-18T16:08:04.215Z,1.30
2023-09-18T16:10:33.466Z,1.17
2023-09-18T16:13:00.839Z,1.23
2023-09-18T16:15:28.843Z,1.20
2023-09-18T16:17:56.564Z,1.50
2023-09-18T16:20:23.663Z,1.30
2023-09-18T16:22:50.604Z,1.13
2023-09-18T16:25:17.251Z,1.33
2023-09-18T16:27:43.989Z,1.30
2023-09-18T16:30:11.530Z,1.40
2023-09-18T16:32:39.926Z,1.38
2023-09-18T16:35:07.336Z,1.17
2023-09-18T16:37:34.068Z,1.30
2023-09-18T16:40:00.879Z,1.30
2023-09-18T16:42:27.669Z,1.23
2023-09-18T16:44:54.908Z,1.30
2023-09-18T16:47:22.486Z,1.35
2023-09-18T16:49:50.222Z,1.33
2023-09-18T16:52:18.473Z,1.40
2023-09-18T16:57:14.002Z,1.05
2023-09-18T16:59:40.788Z,1.27
2023-09-18T17:02:09.643Z,1.15
2023-09-18T17:04:41.164Z,1.48
2023-09-18T17:07:12.325Z,1.17
2023-09-18T17:09:39.186Z,1.15
2023-09-18T17:12:06.434Z,1.27
2023-09-18T17:14:33.046Z,1.30
2023-09-18T17:16:59.605Z,1.10
2023-09-18T17:19:26.136Z,1.13
2023-09-18T17:21:52.761Z,1.25
2023-09-18T17:24:19.400Z,1.13
2023-09-18T17:26:46.019Z,1.20
2023-09-18T17:29:12.693Z,1.67
2023-09-18T17:31:39.316Z,1.77
2023-09-18T17:34:06.008Z,1.20
2023-09-18T17:36:41.020Z,1.52
2023-09-18T17:39:09.725Z,1.50
2023-09-18T17:41:36.392Z,1.33
2023-09-18T17:44:03.780Z,1.00
2023-09-18T17:46:30.807Z,1.10
2023-09-18T17:48:57.538Z,1.42
2023-09-18T17:51:24.087Z,1.30
2023-09-18T17:53:51.429Z,1.20
2023-09-18T17:56:18.052Z,1.40
2023-09-18T17:58:44.935Z,1.15
2023-09-18T18:01:12.038Z,1.42
2023-09-18T18:03:41.000Z,1.20
2023-09-18T18:06:11.378Z,1.15
2023-09-18T18:08:38.445Z,1.10
2023-09-18T18:11:05.457Z,1.60
2023-09-18T18:13:32.862Z,1.30
2023-09-18T18:15:59.920Z,1.00
2023-09-18T18:18:26.842Z,1.45
2023-09-18T18:20:57.047Z,1.20
2023-09-18T18:23:24.047Z,1.15
2023-09-18T18:25:53.690Z,1.00
2023-09-18T18:28:21.360Z,1.20
2023-09-18T18:30:52.708Z,1.10
2023-09-18T18:33:21.984Z,1.30
2023-09-18T18:35:49.634Z,1.25
2023-09-18T18:38:16.258Z,1.00
2023-09-18T18:40:45.660Z,1.30
2023-09-18T18:43:16.423Z,1.10
2023-09-18T18:45:44.176Z,1.30
2023-09-18T18:48:11.041Z,0.88
2023-09-18T18:50:40.160Z,0.98
2023-09-18T18:53:08.968Z,1.08
2023-09-18T18:55:35.841Z,1.02
2023-09-18T18:58:04.048Z,0.98
2023-09-18T19:00:30.728Z,1.00
2023-09-18T19:02:57.396Z,1.08
2023-09-18T19:05:25.525Z,1.20
2023-09-18T19:07:52.526Z,0.88
2023-09-18T19:10:19.182Z,1.20
2023-09-18T19:12:47.688Z,1.08
2023-09-18T19:15:15.149Z,1.20
2023-09-18T19:17:42.646Z,1.25
2023-09-18T19:20:09.461Z,1.33
2023-09-18T19:22:36.219Z,1.33
2023-09-18T19:25:05.687Z,1.48
2023-09-18T19:27:37.407Z,1.10
2023-09-18T19:30:08.167Z,1.00
2023-09-18T19:32:39.371Z,0.82
2023-09-18T19:35:07.239Z,1.00
2023-09-18T19:37:34.252Z,1.17
2023-09-18T19:40:00.923Z,1.10
2023-09-18T19:42:27.446Z,1.10
2023-09-18T19:44:54.069Z,1.10
2023-09-18T19:47:20.878Z,1.15
2023-09-18T19:49:47.497Z,1.00
2023-09-18T19:52:17.546Z,1.00
2023-09-18T19:54:44.407Z,1.20
2023-09-18T19:57:11.439Z,0.98
2023-09-18T19:59:38.034Z,1.30
2023-09-18T20:02:06.863Z,1.13
2023-09-18T20:04:34.895Z,1.40
2023-09-18T20:07:01.651Z,1.27
2023-09-18T20:09:28.469Z,1.20
2023-09-18T20:11:55.298Z,1.00
2023-09-18T20:14:31.273Z,1.30
2023-09-18T20:16:58.618Z,1.30
2023-09-18T20:19:25.303Z,1.20
2023-09-18T20:21:53.154Z,1.30
2023-09-18T20:24:20.419Z,1.02
2023-09-18T20:26:49.953Z,1.23
2023-09-18T20:29:16.990Z,1.27
2023-09-18T20:31:43.721Z,1.20
2023-09-18T20:34:10.843Z,1.20
2023-09-18T20:36:37.686Z,1.23
2023-09-18T20:39:05.893Z,1.23
2023-09-18T20:41:33.549Z,1.30
2023-09-18T20:44:01.487Z,1.23
2023-09-18T20:46:31.782Z,1.20
2023-09-18T20:51:31.919Z,1.25
2023-09-18T20:54:01.307Z,1.25
2023-09-18T20:56:28.598Z,1.25
2023-09-18T20:59:00.306Z,1.20
2023-09-18T21:01:29.806Z,1.20
2023-09-18T21:03:56.547Z,1.17
2023-09-18T21:06:23.674Z,1.20
2023-09-18T21:08:51.812Z,1.30
2023-09-18T21:11:18.549Z,1.10
2023-09-18T21:13:47.461Z,1.20
2023-09-18T21:16:18.647Z,1.17
2023-09-18T21:18:46.269Z,1.23
2023-09-18T21:21:17.128Z,1.30
2023-09-18T21:23:45.290Z,1.23
2023-09-18T21:26:13.044Z,1.35
2023-09-18T21:28:40.884Z,1.20
2023-09-18T21:31:17.681Z,1.10
2023-09-18T21:33:46.853Z,1.15
2023-09-18T21:36:19.760Z,1.10
2023-09-18T21:38:46.805Z,1.30
2023-09-18T21:41:14.978Z,1.33
2023-09-18T21:43:41.523Z,1.13
2023-09-18T21:46:08.343Z,1.20
2023-09-18T21:48:35.363Z,1.20
2023-09-18T21:51:02.262Z,1.30
2023-09-18T21:56:08.055Z,1.30
2023-09-18T21:58:34.589Z,1.40
2023-09-18T22:01:07.276Z,1.33
2023-09-18T22:03:38.236Z,1.10
2023-09-18T22:06:06.027Z,1.40
2023-09-18T22:08:35.784Z,1.15
2023-09-18T22:11:04.040Z,1.23
2023-09-18T22:13:30.958Z,1.20
2023-09-18T22:15:57.571Z,1.15
2023-09-18T22:18:24.250Z,1.65
2023-09-18T22:20:52.265Z,1.10
2023-09-18T22:23:19.350Z,1.40
2023-09-18T22:25:45.984Z,1.10
2023-09-18T22:28:12.625Z,1.10
2023-09-18T22:30:42.105Z,1.30
2023-09-18T22:33:08.745Z,1.50
2023-09-18T22:35:35.749Z,1.27
2023-09-18T22:38:33.630Z,1.10
2023-09-18T22:41:00.131Z,1.33
2023-09-18T22:44:04.080Z,1.38
2023-09-18T22:47:09.172Z,1.13
2023-09-18T22:50:13.647Z,1.30
2023-09-18T22:52:46.388Z,1.50
2023-09-18T22:55:15.304Z,1.38
2023-09-18T22:57:46.724Z,1.30
2023-09-18T23:00:21.559Z,1.20
2023-09-18T23:02:48.775Z,1.20
2023-09-18T23:05:20.560Z,1.52
2023-09-18T23:07:50.856Z,1.30
2023-09-18T23:10:20.623Z,1.45
2023-09-18T23:12:47.744Z,1.52
2023-09-18T23:15:18.568Z,1.65
2023-09-18T23:17:45.714Z,1.38
2023-09-18T23:20:14.449Z,1.15
2023-09-18T23:22:44.794Z,1.30
2023-09-18T23:25:13.439Z,1.60
2023-09-18T23:27:42.577Z,1.20
2023-09-18T23:30:12.482Z,1.42
2023-09-18T23:32:45.441Z,1.40
2023-09-18T23:35:18.218Z,1.50
2023-09-18T23:37:45.368Z,1.30
2023-09-18T23:40:15.557Z,1.30
2023-09-18T23:42:43.229Z,1.52
2023-09-18T23:45:10.864Z,1.20
2023-09-18T23:47:37.410Z,1.67
2023-09-18T23:50:08.035Z,1.38
2023-09-18T23:52:35.193Z,1.42
2023-09-18T23:55:01.861Z,1.33
2023-09-18T23:57:28.604Z,1.70
2023-09-18T23:59:55.962Z,1.42
